Time;durP1;ratioP1;P1;durP2;ratioP2;P2;SDS_P1;SDS_P2;PMS_P1;PMS_P2;Temp;Humidity;BMP_temperature;BMP_pressure;BME280_temperature;BME280_humidity;BME280_pressure;Samples;Min_cycle;Max_cycle;Signal;HPM_P1;HPM_P2
2024/01/03 00:00:17;;;;;;;1.63;1.50;;;;;;;;;;5026040;28;20050;-76
2024/01/03 00:02:45;;;;;;;6.30;3.15;;;;;;;;;;5026323;28;20414;-78
2024/01/03 00:05:13;;;;;;;0.77;0.77;;;;;;;;;;5028316;28;20071;-78
2024/01/03 00:07:42;;;;;;;1.55;1.48;;;;;;;;;;5027598;28;20756;-75
2024/01/03 00:10:28;;;;;;;0.60;0.60;;;;;;;;;;5026539;28;20142;-75
2024/01/03 00:12:55;;;;;;;0.10;0.10;;;;;;;;;;5027489;28;20042;-75
2024/01/03 00:15:35;;;;;;;0.32;0.32;;;;;;;;;;5028202;28;20541;-76
2024/01/03 00:18:07;;;;;;;0.70;0.70;;;;;;;;;;5027439;28;20084;-76
2024/01/03 00:20:35;;;;;;;1.63;1.48;;;;;;;;;;5028556;28;20038;-76
2024/01/03 00:23:04;;;;;;;0.10;0.10;;;;;;;;;;5027599;28;20072;-75
2024/01/03 00:25:33;;;;;;;1.00;1.00;;;;;;;;;;5025475;28;20136;-76
2024/01/03 00:28:00;;;;;;;3.38;3.08;;;;;;;;;;5027390;28;20419;-76
2024/01/03 00:30:28;;;;;;;2.05;1.30;;;;;;;;;;5020750;28;20053;-75
2024/01/03 00:32:56;;;;;;;8.35;3.58;;;;;;;;;;5027901;28;20100;-76
2024/01/03 00:35:32;;;;;;;3.55;1.65;;;;;;;;;;5026945;28;20538;-79
2024/01/03 00:38:00;;;;;;;3.53;2.15;;;;;;;;;;5006078;28;20415;-76
2024/01/03 00:40:31;;;;;;;0.10;0.10;;;;;;;;;;5027519;28;20115;-76
2024/01/03 00:42:58;;;;;;;0.15;0.15;;;;;;;;;;5027864;28;20041;-76
2024/01/03 00:45:26;;;;;;;0.10;0.10;;;;;;;;;;5027395;28;20041;-76
2024/01/03 00:47:54;;;;;;;0.10;0.10;;;;;;;;;;5027237;28;20045;-76
2024/01/03 00:50:22;;;;;;;3.00;2.60;;;;;;;;;;5027709;28;20049;-76
2024/01/03 00:52:49;;;;;;;0.15;0.15;;;;;;;;;;5026576;28;20132;-77
2024/01/03 00:55:17;;;;;;;0.35;0.35;;;;;;;;;;5027895;28;20045;-76
2024/01/03 00:57:44;;;;;;;0.30;0.30;;;;;;;;;;5029819;28;20049;-75
2024/01/03 01:00:12;;;;;;;0.10;0.10;;;;;;;;;;5030656;28;20056;-76
2024/01/03 01:02:40;;;;;;;0.10;0.10;;;;;;;;;;5016102;28;20491;-76
2024/01/03 01:05:08;;;;;;;0.22;0.22;;;;;;;;;;5029573;28;20656;-75
2024/01/03 01:07:36;;;;;;;0.00;0.00;;;;;;;;;;5029457;28;20427;-76
2024/01/03 01:10:03;;;;;;;0.10;0.10;;;;;;;;;;5016683;28;20080;-77
2024/01/03 01:12:31;;;;;;;0.38;0.38;;;;;;;;;;5014262;28;20045;-76
2024/01/03 01:15:00;;;;;;;0.10;0.10;;;;;;;;;;5030727;28;20046;-78
2024/01/03 01:17:28;;;;;;;0.10;0.10;;;;;;;;;;5029578;28;20534;-76
2024/01/03 01:19:56;;;;;;;0.30;0.30;;;;;;;;;;5030597;28;20058;-76
2024/01/03 01:22:25;;;;;;;0.10;0.10;;;;;;;;;;5019107;28;20049;-76
2024/01/03 01:24:53;;;;;;;0.10;0.10;;;;;;;;;;5030649;28;20549;-77
2024/01/03 01:27:20;;;;;;;0.10;0.10;;;;;;;;;;5027982;28;20384;-77
2024/01/03 01:29:48;;;;;;;0.20;0.20;;;;;;;;;;5027011;28;20562;-76
2024/01/03 01:32:16;;;;;;;0.30;0.30;;;;;;;;;;5019338;28;20176;-76
2024/01/03 01:34:43;;;;;;;0.30;0.30;;;;;;;;;;5008780;28;20137;-77
2024/01/03 01:37:11;;;;;;;0.10;0.10;;;;;;;;;;5010223;28;20045;-78
2024/01/03 01:39:40;;;;;;;0.10;0.10;;;;;;;;;;5023585;28;20052;-76
2024/01/03 01:42:07;;;;;;;0.77;0.77;;;;;;;;;;5028328;28;20045;-76
2024/01/03 01:44:35;;;;;;;0.25;0.22;;;;;;;;;;5029347;28;20088;-76
2024/01/03 01:47:05;;;;;;;0.05;0.05;;;;;;;;;;5029920;28;20482;-76
2024/01/03 01:49:33;;;;;;;0.32;0.32;;;;;;;;;;5027144;28;20057;-76
2024/01/03 01:52:02;;;;;;;0.60;0.55;;;;;;;;;;5029489;28;20129;-77
2024/01/03 01:54:30;;;;;;;0.55;0.52;;;;;;;;;;5028960;28;20428;-76
2024/01/03 01:56:57;;;;;;;0.10;0.10;;;;;;;;;;5029010;28;20053;-76
2024/01/03 01:59:25;;;;;;;0.10;0.10;;;;;;;;;;5029176;28;20080;-76
2024/01/03 02:01:53;;;;;;;0.10;0.10;;;;;;;;;;5029072;28;20045;-77
2024/01/03 02:04:21;;;;;;;0.00;0.00;;;;;;;;;;5020939;28;20072;-76
2024/01/03 02:06:49;;;;;;;0.60;0.60;;;;;;;;;;5021273;28;20478;-76
2024/01/03 02:09:16;;;;;;;0.03;0.03;;;;;;;;;;5029460;28;20057;-76
2024/01/03 02:11:48;;;;;;;1.08;1.05;;;;;;;;;;5029149;28;20499;-76
2024/01/03 02:14:16;;;;;;;0.22;0.22;;;;;;;;;;5030117;28;20049;-76
2024/01/03 02:16:43;;;;;;;0.80;0.80;;;;;;;;;;5029028;28;20070;-77
2024/01/03 02:19:11;;;;;;;0.50;0.50;;;;;;;;;;5029611;28;20057;-76
2024/01/03 02:21:39;;;;;;;0.55;0.55;;;;;;;;;;5024956;28;20056;-76
2024/01/03 02:24:06;;;;;;;0.63;0.63;;;;;;;;;;5029474;28;20045;-76
2024/01/03 02:26:34;;;;;;;0.80;0.80;;;;;;;;;;5027975;28;20135;-77
2024/01/03 02:29:02;;;;;;;1.23;1.13;;;;;;;;;;5029118;28;20123;-77
2024/01/03 02:31:30;;;;;;;0.10;0.10;;;;;;;;;;5028308;28;20407;-76
2024/01/03 02:33:57;;;;;;;0.35;0.35;;;;;;;;;;5029094;28;20057;-76
2024/01/03 02:36:25;;;;;;;0.20;0.20;;;;;;;;;;5027862;28;20050;-76
2024/01/03 02:38:53;;;;;;;0.13;0.13;;;;;;;;;;5028558;28;20123;-76
2024/01/03 02:41:21;;;;;;;0.20;0.20;;;;;;;;;;5023821;28;20064;-76
2024/01/03 02:43:49;;;;;;;0.10;0.10;;;;;;;;;;5031648;28;20041;-76
2024/01/03 02:46:20;;;;;;;0.10;0.10;;;;;;;;;;5031583;28;20045;-77
2024/01/03 02:48:47;;;;;;;0.10;0.10;;;;;;;;;;5029870;28;20057;-76
2024/01/03 02:51:19;;;;;;;0.10;0.10;;;;;;;;;;5029376;28;20569;-77
2024/01/03 02:53:47;;;;;;;0.10;0.10;;;;;;;;;;5029740;28;20542;-77
2024/01/03 02:56:15;;;;;;;0.00;0.00;;;;;;;;;;5030716;28;20045;-76
2024/01/03 02:58:43;;;;;;;2.28;0.30;;;;;;;;;;5029632;28;20447;-76
2024/01/03 03:01:10;;;;;;;0.10;0.10;;;;;;;;;;5028402;28;20041;-77
2024/01/03 03:03:39;;;;;;;0.10;0.10;;;;;;;;;;5028549;28;20419;-76
2024/01/03 03:06:06;;;;;;;0.10;0.10;;;;;;;;;;5027058;28;20088;-77
2024/01/03 03:08:35;;;;;;;1.55;0.80;;;;;;;;;;5027826;28;20295;-76
2024/01/03 03:11:04;;;;;;;0.10;0.10;;;;;;;;;;5028605;28;20077;-76
2024/01/03 03:13:32;;;;;;;0.10;0.10;;;;;;;;;;5028476;28;20037;-76
2024/01/03 03:15:59;;;;;;;0.10;0.10;;;;;;;;;;5026279;28;20557;-76
2024/01/03 03:18:27;;;;;;;1.00;0.40;;;;;;;;;;5027866;28;20091;-77
2024/01/03 03:20:55;;;;;;;0.43;0.10;;;;;;;;;;5025921;28;20094;-76
2024/01/03 03:23:23;;;;;;;0.20;0.20;;;;;;;;;;5028430;28;20061;-76
2024/01/03 03:25:50;;;;;;;0.10;0.10;;;;;;;;;;5048803;22;20521;-82
2024/01/03 03:28:18;;;;;;;0.10;0.10;;;;;;;;;;5030855;28;20076;-80
2024/01/03 03:30:45;;;;;;;0.10;0.10;;;;;;;;;;5028347;28;20273;-80
2024/01/03 03:33:13;;;;;;;0.17;0.17;;;;;;;;;;5028248;28;20133;-81
2024/01/03 03:35:41;;;;;;;0.10;0.10;;;;;;;;;;5033716;28;20148;-81
2024/01/03 03:38:08;;;;;;;0.32;0.32;;;;;;;;;;5035803;28;20045;-81
2024/01/03 03:40:36;;;;;;;0.10;0.10;;;;;;;;;;5019522;28;20041;-82
2024/01/03 03:43:04;;;;;;;0.10;0.10;;;;;;;;;;5021858;28;20045;-81
2024/01/03 03:45:31;;;;;;;0.10;0.10;;;;;;;;;;5033881;28;20049;-82
2024/01/03 03:47:59;;;;;;;0.00;0.00;;;;;;;;;;5033960;28;20144;-82
2024/01/03 03:50:27;;;;;;;0.15;0.15;;;;;;;;;;5034586;28;20056;-80
2024/01/03 03:52:54;;;;;;;0.20;0.20;;;;;;;;;;5035584;28;20051;-81
2024/01/03 03:55:22;;;;;;;0.10;0.10;;;;;;;;;;5036217;28;20069;-82
2024/01/03 03:57:49;;;;;;;0.10;0.10;;;;;;;;;;5022383;28;20050;-81
2024/01/03 04:00:17;;;;;;;0.20;0.10;;;;;;;;;;5034303;28;20069;-80
2024/01/03 04:02:45;;;;;;;0.10;0.10;;;;;;;;;;5035818;28;20053;-80
2024/01/03 04:05:13;;;;;;;0.10;0.10;;;;;;;;;;5037444;28;20069;-80
2024/01/03 04:07:41;;;;;;;0.10;0.10;;;;;;;;;;5034225;28;20042;-82
2024/01/03 04:10:09;;;;;;;0.10;0.10;;;;;;;;;;5031257;28;20507;-82
2024/01/03 04:12:38;;;;;;;0.10;0.10;;;;;;;;;;5034545;28;20427;-82
2024/01/03 04:15:05;;;;;;;0.28;0.28;;;;;;;;;;5033829;28;20414;-81
2024/01/03 04:17:33;;;;;;;0.10;0.10;;;;;;;;;;5033933;28;20089;-82
2024/01/03 04:20:01;;;;;;;0.10;0.10;;;;;;;;;;5035487;28;20050;-81
2024/01/03 04:22:29;;;;;;;0.10;0.10;;;;;;;;;;5032862;28;20056;-81
2024/01/03 04:24:57;;;;;;;0.20;0.20;;;;;;;;;;5030992;28;20069;-82
2024/01/03 04:27:25;;;;;;;9.32;0.55;;;;;;;;;;5012555;28;20072;-80
2024/01/03 04:29:52;;;;;;;0.10;0.10;;;;;;;;;;5023766;28;20049;-80
2024/01/03 04:32:20;;;;;;;0.20;0.20;;;;;;;;;;5029178;28;20048;-81
2024/01/03 04:34:47;;;;;;;0.10;0.10;;;;;;;;;;5029881;28;20132;-82
2024/01/03 04:37:15;;;;;;;0.20;0.20;;;;;;;;;;5027973;28;20375;-80
2024/01/03 04:39:42;;;;;;;0.10;0.10;;;;;;;;;;5029137;28;20049;-81
2024/01/03 04:42:10;;;;;;;0.10;0.10;;;;;;;;;;5012340;28;20053;-81
2024/01/03 04:44:38;;;;;;;0.57;0.57;;;;;;;;;;5019161;28;20123;-81
2024/01/03 04:47:05;;;;;;;0.10;0.10;;;;;;;;;;5029812;28;20500;-80
2024/01/03 04:49:33;;;;;;;0.08;0.08;;;;;;;;;;5029100;28;20057;-80
2024/01/03 04:52:01;;;;;;;0.10;0.10;;;;;;;;;;5025946;28;20119;-81
2024/01/03 04:54:29;;;;;;;1.25;0.40;;;;;;;;;;5012648;28;20052;-82
2024/01/03 04:56:57;;;;;;;0.10;0.10;;;;;;;;;;5028944;28;20256;-81
2024/01/03 04:59:24;;;;;;;0.20;0.20;;;;;;;;;;5029230;28;20053;-80
2024/01/03 05:01:52;;;;;;;0.17;0.17;;;;;;;;;;5026686;28;20073;-80
2024/01/03 05:04:20;;;;;;;0.10;0.10;;;;;;;;;;5010549;28;20093;-81
2024/01/03 05:06:50;;;;;;;0.10;0.10;;;;;;;;;;5026704;28;20041;-81
2024/01/03 05:09:18;;;;;;;0.10;0.10;;;;;;;;;;5029228;28;20124;-80
2024/01/03 05:11:46;;;;;;;0.13;0.13;;;;;;;;;;5029037;28;20053;-81
2024/01/03 05:14:13;;;;;;;0.10;0.10;;;;;;;;;;5030371;28;20430;-82
2024/01/03 05:16:41;;;;;;;0.20;0.20;;;;;;;;;;5028694;28;20561;-82
2024/01/03 05:19:09;;;;;;;0.10;0.10;;;;;;;;;;5023619;28;20050;-82
2024/01/03 05:21:37;;;;;;;0.10;0.10;;;;;;;;;;5010198;28;20491;-81
2024/01/03 05:24:04;;;;;;;0.10;0.10;;;;;;;;;;5029678;28;20042;-81
2024/01/03 05:26:32;;;;;;;0.10;0.10;;;;;;;;;;5026759;28;20510;-82
2024/01/03 05:29:00;;;;;;;0.10;0.10;;;;;;;;;;5028447;28;20049;-82
2024/01/03 05:31:27;;;;;;;0.03;0.03;;;;;;;;;;5028604;28;20045;-81
2024/01/03 05:33:55;;;;;;;0.10;0.10;;;;;;;;;;5028303;28;20123;-82
2024/01/03 05:36:23;;;;;;;0.10;0.10;;;;;;;;;;5025862;28;20076;-81
2024/01/03 05:38:50;;;;;;;0.10;0.10;;;;;;;;;;5027171;28;20607;-82
2024/01/03 05:41:18;;;;;;;0.20;0.20;;;;;;;;;;5027929;28;20091;-81
2024/01/03 05:43:46;;;;;;;0.10;0.10;;;;;;;;;;5015753;28;20096;-81
2024/01/03 05:46:14;;;;;;;0.10;0.10;;;;;;;;;;5029066;28;20517;-83
2024/01/03 05:48:42;;;;;;;0.10;0.10;;;;;;;;;;5030317;28;20133;-82
2024/01/03 05:51:10;;;;;;;0.10;0.10;;;;;;;;;;5029347;28;20049;-82
2024/01/03 05:53:39;;;;;;;0.10;0.10;;;;;;;;;;5011429;28;20458;-81
2024/01/03 05:56:08;;;;;;;0.03;0.03;;;;;;;;;;5029958;28;20065;-81
2024/01/03 05:58:35;;;;;;;0.10;0.10;;;;;;;;;;5012474;28;20091;-77
2024/01/03 06:01:06;;;;;;;0.10;0.10;;;;;;;;;;5027477;28;20696;-81
2024/01/03 06:03:34;;;;;;;0.10;0.10;;;;;;;;;;5010867;28;20813;-80
2024/01/03 06:06:02;;;;;;;0.10;0.10;;;;;;;;;;5027549;28;20068;-81
2024/01/03 06:08:29;;;;;;;0.10;0.10;;;;;;;;;;5010272;28;20042;-81
2024/01/03 06:10:57;;;;;;;0.15;0.15;;;;;;;;;;5026549;28;20279;-81
2024/01/03 06:13:25;;;;;;;0.10;0.10;;;;;;;;;;5017922;28;20164;-81
2024/01/03 06:15:52;;;;;;;0.10;0.10;;;;;;;;;;5025029;28;20041;-82
2024/01/03 06:18:21;;;;;;;0.10;0.10;;;;;;;;;;5024263;28;20041;-81
2024/01/03 06:21:11;;;;;;;0.20;0.20;;;;;;;;;;4999824;28;20595;-81
2024/01/03 06:23:40;;;;;;;0.15;0.15;;;;;;;;;;5018762;28;20053;-81
2024/01/03 06:26:08;;;;;;;0.10;0.10;;;;;;;;;;4998634;28;20123;-82
2024/01/03 06:28:36;;;;;;;0.10;0.10;;;;;;;;;;5024484;28;20557;-81
2024/01/03 06:31:04;;;;;;;0.20;0.20;;;;;;;;;;5017451;28;20675;-80
2024/01/03 06:33:32;;;;;;;0.10;0.10;;;;;;;;;;5000117;28;20049;-81
2024/01/03 06:36:00;;;;;;;0.10;0.10;;;;;;;;;;5018006;28;20293;-81
2024/01/03 06:38:29;;;;;;;0.10;0.10;;;;;;;;;;5021390;28;20045;-82
2024/01/03 06:40:57;;;;;;;0.30;0.15;;;;;;;;;;5016331;28;20046;-81
2024/01/03 06:43:24;;;;;;;0.20;0.20;;;;;;;;;;5009972;28;20067;-81
2024/01/03 06:45:52;;;;;;;0.10;0.10;;;;;;;;;;5004386;28;23310;-82
2024/01/03 06:48:20;;;;;;;0.10;0.10;;;;;;;;;;5011998;28;20045;-81
2024/01/03 06:50:48;;;;;;;0.10;0.10;;;;;;;;;;5025022;28;20065;-82
2024/01/03 06:53:15;;;;;;;0.10;0.10;;;;;;;;;;5026145;28;20061;-81
2024/01/03 06:55:43;;;;;;;0.10;0.10;;;;;;;;;;5015569;28;20179;-81
2024/01/03 06:58:11;;;;;;;0.10;0.10;;;;;;;;;;5011864;28;20045;-82
2024/01/03 07:00:40;;;;;;;0.10;0.10;;;;;;;;;;5021587;28;20048;-83
2024/01/03 07:03:08;;;;;;;0.30;0.30;;;;;;;;;;5009351;28;20046;-81
2024/01/03 07:05:35;;;;;;;0.10;0.10;;;;;;;;;;5015988;28;20073;-81
2024/01/03 07:08:05;;;;;;;0.10;0.10;;;;;;;;;;5008529;28;20053;-81
2024/01/03 07:10:33;;;;;;;0.10;0.10;;;;;;;;;;5015335;28;20053;-83
2024/01/03 07:13:01;;;;;;;0.20;0.20;;;;;;;;;;5026436;28;20049;-81
2024/01/03 07:15:29;;;;;;;0.13;0.13;;;;;;;;;;5004407;28;20148;-81
2024/01/03 07:17:56;;;;;;;0.55;0.30;;;;;;;;;;5026241;28;20045;-81
2024/01/03 07:20:24;;;;;;;0.10;0.10;;;;;;;;;;5026001;28;20056;-81
2024/01/03 07:22:52;;;;;;;0.30;0.30;;;;;;;;;;5023397;28;20056;-81
2024/01/03 07:25:20;;;;;;;1.08;0.38;;;;;;;;;;5027489;28;20045;-82
2024/01/03 07:27:47;;;;;;;0.10;0.10;;;;;;;;;;5008630;28;20329;-81
2024/01/03 07:30:15;;;;;;;0.05;0.05;;;;;;;;;;5016506;28;20439;-81
2024/01/03 07:32:43;;;;;;;0.35;0.35;;;;;;;;;;4989685;28;20059;-81
2024/01/03 07:35:11;;;;;;;0.10;0.10;;;;;;;;;;5020262;28;20513;-83
2024/01/03 07:37:38;;;;;;;0.10;0.10;;;;;;;;;;5019795;28;20060;-83
2024/01/03 07:40:06;;;;;;;0.10;0.10;;;;;;;;;;5011213;28;20148;-82
2024/01/03 07:42:34;;;;;;;0.10;0.10;;;;;;;;;;5010996;28;20351;-81
2024/01/03 07:45:01;;;;;;;0.10;0.10;;;;;;;;;;5008183;28;20037;-81
2024/01/03 07:47:29;;;;;;;0.10;0.10;;;;;;;;;;5025122;28;20422;-82
2024/01/03 07:49:57;;;;;;;0.28;0.28;;;;;;;;;;5018894;28;20084;-81
2024/01/03 07:52:24;;;;;;;0.10;0.10;;;;;;;;;;5009812;28;20056;-81
2024/01/03 07:54:55;;;;;;;0.20;0.20;;;;;;;;;;5015077;28;20514;-82
2024/01/03 07:57:22;;;;;;;0.10;0.10;;;;;;;;;;5005459;28;20053;-82
2024/01/03 07:59:51;;;;;;;0.10;0.10;;;;;;;;;;5035091;28;20077;-81
2024/01/03 08:02:19;;;;;;;0.10;0.10;;;;;;;;;;5018025;28;20095;-83
2024/01/03 08:04:46;;;;;;;0.10;0.10;;;;;;;;;;5037070;28;20056;-82
2024/01/03 08:07:14;;;;;;;0.10;0.10;;;;;;;;;;5035788;28;20044;-81
2024/01/03 08:09:41;;;;;;;0.00;0.00;;;;;;;;;;5018322;28;20049;-82
2024/01/03 08:12:09;;;;;;;0.40;0.40;;;;;;;;;;5011668;28;20317;-81
2024/01/03 08:14:37;;;;;;;0.10;0.10;;;;;;;;;;5027911;28;20053;-82
2024/01/03 08:17:05;;;;;;;0.10;0.10;;;;;;;;;;5026483;28;20518;-83
2024/01/03 08:19:33;;;;;;;0.10;0.10;;;;;;;;;;5027644;28;20055;-81
2024/01/03 08:22:01;;;;;;;0.10;0.10;;;;;;;;;;5010886;28;20037;-80
2024/01/03 08:24:29;;;;;;;0.10;0.10;;;;;;;;;;5029913;28;20057;-80
2024/01/03 08:26:59;;;;;;;0.13;0.13;;;;;;;;;;5028200;28;20045;-82
2024/01/03 08:29:29;;;;;;;0.10;0.10;;;;;;;;;;5009129;28;20574;-80
2024/01/03 08:31:57;;;;;;;0.10;0.10;;;;;;;;;;5025453;28;20084;-82
2024/01/03 08:34:30;;;;;;;0.20;0.20;;;;;;;;;;5011265;28;20508;-81
2024/01/03 08:36:58;;;;;;;0.20;0.20;;;;;;;;;;5029243;28;20065;-81
2024/01/03 08:39:25;;;;;;;0.10;0.10;;;;;;;;;;5030909;28;20395;-80
2024/01/03 08:42:00;;;;;;;0.10;0.10;;;;;;;;;;5012278;28;20056;-81
2024/01/03 08:44:33;;;;;;;0.10;0.10;;;;;;;;;;5009807;28;20516;-83
2024/01/03 08:47:00;;;;;;;0.30;0.30;;;;;;;;;;5017653;28;20140;-83
2024/01/03 08:49:28;;;;;;;0.43;0.43;;;;;;;;;;5025892;28;20476;-80
2024/01/03 08:51:57;;;;;;;0.10;0.10;;;;;;;;;;5017708;28;20060;-82
2024/01/03 08:54:26;;;;;;;0.30;0.30;;;;;;;;;;5029527;28;20148;-82
2024/01/03 08:56:53;;;;;;;0.30;0.30;;;;;;;;;;5005711;28;20045;-81
2024/01/03 08:59:21;;;;;;;0.10;0.10;;;;;;;;;;5009226;28;20041;-81
2024/01/03 09:01:58;;;;;;;0.10;0.10;;;;;;;;;;4995726;28;20041;-80
2024/01/03 09:04:25;;;;;;;0.10;0.10;;;;;;;;;;5020236;28;20057;-81
2024/01/03 09:06:53;;;;;;;0.10;0.10;;;;;;;;;;5027412;28;20967;-81
2024/01/03 09:09:23;;;;;;;0.10;0.10;;;;;;;;;;5029226;28;20464;-81
2024/01/03 09:11:52;;;;;;;0.20;0.20;;;;;;;;;;5017517;28;20104;-81
2024/01/03 09:14:20;;;;;;;0.40;0.40;;;;;;;;;;5012401;28;20041;-82
2024/01/03 09:16:48;;;;;;;0.50;0.50;;;;;;;;;;5028991;28;20045;-80
2024/01/03 09:19:18;;;;;;;0.40;0.38;;;;;;;;;;5008011;28;20045;-80
2024/01/03 09:21:46;;;;;;;0.43;0.40;;;;;;;;;;5026473;28;20431;-81
2024/01/03 09:24:13;;;;;;;0.10;0.10;;;;;;;;;;5027103;28;20045;-80
2024/01/03 09:26:41;;;;;;;0.10;0.10;;;;;;;;;;5008418;28;20051;-83
2024/01/03 09:29:09;;;;;;;0.30;0.30;;;;;;;;;;5024543;28;20054;-81
2024/01/03 09:31:43;;;;;;;0.20;0.20;;;;;;;;;;5026515;28;20045;-80
2024/01/03 09:34:11;;;;;;;0.22;0.22;;;;;;;;;;5007230;28;20050;-82
2024/01/03 09:36:39;;;;;;;0.10;0.10;;;;;;;;;;5027138;28;20498;-81
2024/01/03 09:39:08;;;;;;;0.10;0.10;;;;;;;;;;5010640;28;20041;-81
2024/01/03 09:41:38;;;;;;;0.13;0.13;;;;;;;;;;4993026;28;20046;-81
2024/01/03 09:44:06;;;;;;;0.28;0.28;;;;;;;;;;5009818;28;20276;-81
2024/01/03 09:46:35;;;;;;;0.10;0.10;;;;;;;;;;5028417;28;20068;-82
2024/01/03 09:49:03;;;;;;;0.20;0.20;;;;;;;;;;5028294;28;20053;-81
2024/01/03 09:51:40;;;;;;;0.25;0.25;;;;;;;;;;5034761;23;20050;-77
2024/01/03 09:54:08;;;;;;;0.10;0.10;;;;;;;;;;4966557;28;20046;-74
2024/01/03 09:56:40;;;;;;;0.77;0.77;;;;;;;;;;4983116;28;20394;-75
2024/01/03 09:59:08;;;;;;;0.20;0.20;;;;;;;;;;4957181;28;25726;-76
2024/01/03 10:01:37;;;;;;;0.40;0.40;;;;;;;;;;4971795;28;20078;-76
2024/01/03 10:04:06;;;;;;;0.28;0.28;;;;;;;;;;4964991;28;20101;-74
2024/01/03 10:06:50;;;;;;;0.10;0.10;;;;;;;;;;4962492;28;20050;-77
2024/01/03 10:09:18;;;;;;;0.38;0.13;;;;;;;;;;4980330;28;20043;-74
2024/01/03 10:11:47;;;;;;;0.77;0.65;;;;;;;;;;4987980;28;20081;-74
2024/01/03 10:14:18;;;;;;;0.00;0.00;;;;;;;;;;4982532;28;20065;-76
2024/01/03 10:16:47;;;;;;;0.35;0.35;;;;;;;;;;4985171;28;20038;-75
2024/01/03 10:19:16;;;;;;;0.35;0.30;;;;;;;;;;4981426;28;20050;-74
2024/01/03 10:21:49;;;;;;;0.52;0.40;;;;;;;;;;4972345;28;20065;-76
2024/01/03 10:24:17;;;;;;;0.25;0.22;;;;;;;;;;4982647;28;20154;-74
2024/01/03 10:26:45;;;;;;;0.38;0.25;;;;;;;;;;4980921;28;20124;-75
2024/01/03 10:29:15;;;;;;;1.05;0.95;;;;;;;;;;4977251;28;20049;-75
2024/01/03 10:31:43;;;;;;;2.30;0.77;;;;;;;;;;4969309;28;20116;-74
2024/01/03 10:34:17;;;;;;;0.20;0.20;;;;;;;;;;4980998;28;20471;-75
2024/01/03 10:36:46;;;;;;;0.30;0.30;;;;;;;;;;4979869;28;20405;-76
2024/01/03 10:39:17;;;;;;;0.30;0.30;;;;;;;;;;4981426;28;20034;-75
2024/01/03 10:41:45;;;;;;;;;;;;;;;;;;4982519;28;20068;-77
2024/01/03 10:44:22;;;;;;;0.10;0.10;;;;;;;;;;4980012;28;19925;-74
2024/01/03 10:46:55;;;;;;;0.10;0.10;;;;;;;;;;4966234;28;20042;-75
2024/01/03 10:49:23;;;;;;;0.10;0.10;;;;;;;;;;4981511;28;20050;-74
2024/01/03 10:51:55;;;;;;;1.85;0.50;;;;;;;;;;4982499;28;20310;-74
2024/01/03 10:54:26;;;;;;;0.30;0.30;;;;;;;;;;4981727;28;20445;-74
2024/01/03 10:56:54;;;;;;;0.20;0.20;;;;;;;;;;4983130;28;20492;-74
2024/01/03 10:59:27;;;;;;;0.17;0.17;;;;;;;;;;4985316;28;20661;-75
2024/01/03 11:01:55;;;;;;;0.10;0.10;;;;;;;;;;4980991;28;20049;-75
2024/01/03 11:04:22;;;;;;;0.20;0.20;;;;;;;;;;4984041;28;20182;-75
2024/01/03 11:06:59;;;;;;;0.70;0.55;;;;;;;;;;4983478;28;20070;-74
2024/01/03 11:09:27;;;;;;;0.70;0.30;;;;;;;;;;4973060;28;20451;-74
2024/01/03 11:12:10;;;;;;;1.67;0.73;;;;;;;;;;4983751;28;20050;-74
2024/01/03 11:14:38;;;;;;;0.75;0.43;;;;;;;;;;4986665;28;20404;-74
2024/01/03 11:17:06;;;;;;;0.10;0.10;;;;;;;;;;4987144;28;20038;-74
2024/01/03 11:19:35;;;;;;;0.47;0.47;;;;;;;;;;4982989;28;20081;-75
2024/01/03 11:22:03;;;;;;;0.45;0.45;;;;;;;;;;4986700;28;20038;-74
2024/01/03 11:24:31;;;;;;;0.20;0.20;;;;;;;;;;4984835;28;20049;-74
2024/01/03 11:27:03;;;;;;;0.20;0.20;;;;;;;;;;4984430;28;20042;-74
2024/01/03 11:29:35;;;;;;;0.17;0.17;;;;;;;;;;4984680;28;20442;-74
2024/01/03 11:32:06;;;;;;;0.10;0.10;;;;;;;;;;4983914;28;20050;-74
2024/01/03 11:34:40;;;;;;;0.10;0.10;;;;;;;;;;4982192;28;20105;-74
2024/01/03 11:37:30;;;;;;;0.20;0.20;;;;;;;;;;4986208;28;20038;-76
2024/01/03 11:39:58;;;;;;;0.30;0.30;;;;;;;;;;4983049;28;20054;-74
2024/01/03 11:42:30;;;;;;;0.17;0.17;;;;;;;;;;4984230;28;20050;-74
2024/01/03 11:45:06;;;;;;;0.30;0.30;;;;;;;;;;4986151;28;20050;-74
2024/01/03 11:47:39;;;;;;;0.10;0.10;;;;;;;;;;4984419;28;20054;-74
2024/01/03 11:50:09;;;;;;;0.10;0.10;;;;;;;;;;5002961;28;22237;-76
2024/01/03 11:52:38;;;;;;;0.00;0.00;;;;;;;;;;5005249;28;20069;-74
2024/01/03 11:55:13;;;;;;;0.38;0.38;;;;;;;;;;5005737;28;20046;-74
2024/01/03 11:57:44;;;;;;;0.10;0.10;;;;;;;;;;5005725;28;20058;-75
2024/01/03 12:00:13;;;;;;;0.17;0.17;;;;;;;;;;5003721;28;20050;-75
2024/01/03 12:02:51;;;;;;;0.40;0.40;;;;;;;;;;5004370;28;20054;-74
2024/01/03 12:05:22;;;;;;;1.45;0.35;;;;;;;;;;5002486;28;20050;-75
2024/01/03 12:07:51;;;;;;;0.20;0.20;;;;;;;;;;5003360;28;20562;-75
2024/01/03 12:10:20;;;;;;;0.20;0.20;;;;;;;;;;5005227;28;20057;-76
2024/01/03 12:12:51;;;;;;;0.30;0.30;;;;;;;;;;5003578;28;20041;-74
2024/01/03 12:15:21;;;;;;;0.17;0.17;;;;;;;;;;5003033;28;20164;-74
2024/01/03 12:18:07;;;;;;;0.13;0.13;;;;;;;;;;5005176;28;20041;-75
2024/01/03 12:20:36;;;;;;;0.85;0.52;;;;;;;;;;5002368;28;20141;-75
2024/01/03 12:23:14;;;;;;;2.42;0.40;;;;;;;;;;5003850;28;20062;-75
2024/01/03 12:25:44;;;;;;;1.75;0.57;;;;;;;;;;5004390;28;20571;-74
2024/01/03 12:28:20;;;;;;;0.20;0.20;;;;;;;;;;4994333;28;20061;-76
2024/01/03 12:30:49;;;;;;;0.35;0.35;;;;;;;;;;5004786;28;20452;-77
2024/01/03 12:33:18;;;;;;;0.75;0.75;;;;;;;;;;5005348;28;20458;-74
2024/01/03 12:35:51;;;;;;;0.90;0.52;;;;;;;;;;5003165;28;20073;-76
2024/01/03 12:38:23;;;;;;;1.08;0.50;;;;;;;;;;5004826;28;20114;-74
2024/01/03 12:40:50;;;;;;;0.98;0.20;;;;;;;;;;5004316;28;20502;-74
2024/01/03 12:43:18;;;;;;;1.85;0.30;;;;;;;;;;5002935;28;20391;-74
2024/01/03 12:45:48;;;;;;;0.73;0.65;;;;;;;;;;5003475;28;20136;-74
2024/01/03 12:48:16;;;;;;;1.25;0.47;;;;;;;;;;5004912;28;20077;-74
2024/01/03 12:50:46;;;;;;;0.10;0.10;;;;;;;;;;5002558;28;20085;-77
2024/01/03 12:53:13;;;;;;;0.90;0.43;;;;;;;;;;4991528;28;20053;-75
2024/01/03 12:55:41;;;;;;;0.30;0.30;;;;;;;;;;5007875;28;20052;-75
2024/01/03 12:58:08;;;;;;;8.40;0.75;;;;;;;;;;5006643;28;20053;-74
2024/01/03 13:00:36;;;;;;;1.00;0.43;;;;;;;;;;5006205;28;20104;-75
2024/01/03 13:03:03;;;;;;;0.30;0.30;;;;;;;;;;5007290;28;20120;-75
2024/01/03 13:05:31;;;;;;;0.10;0.10;;;;;;;;;;5007227;28;20104;-75
2024/01/03 13:07:59;;;;;;;0.70;0.70;;;;;;;;;;5004109;28;20073;-76
2024/01/03 13:10:27;;;;;;;0.10;0.10;;;;;;;;;;5004792;28;20056;-76
2024/01/03 13:12:58;;;;;;;0.30;0.30;;;;;;;;;;5006030;28;20042;-74
2024/01/03 13:15:26;;;;;;;0.10;0.10;;;;;;;;;;5004762;28;20141;-74
2024/01/03 13:17:53;;;;;;;0.10;0.10;;;;;;;;;;5008249;28;20542;-74
2024/01/03 13:20:22;;;;;;;0.45;0.40;;;;;;;;;;5009410;28;20045;-74
2024/01/03 13:22:50;;;;;;;0.10;0.10;;;;;;;;;;5006985;28;20049;-74
2024/01/03 13:25:17;;;;;;;1.45;0.40;;;;;;;;;;5009351;28;20392;-74
2024/01/03 13:27:45;;;;;;;0.10;0.10;;;;;;;;;;5007805;28;20046;-77
2024/01/03 13:30:14;;;;;;;0.25;0.25;;;;;;;;;;5006219;28;20057;-74
2024/01/03 13:32:43;;;;;;;0.20;0.20;;;;;;;;;;5007894;28;20517;-74
2024/01/03 13:35:11;;;;;;;0.10;0.10;;;;;;;;;;5002074;28;20056;-76
2024/01/03 13:37:39;;;;;;;0.20;0.20;;;;;;;;;;5004198;28;20042;-74
2024/01/03 13:40:07;;;;;;;0.32;0.10;;;;;;;;;;5006133;28;20046;-74
2024/01/03 13:42:35;;;;;;;0.10;0.10;;;;;;;;;;5000100;28;20488;-75
2024/01/03 13:45:02;;;;;;;0.20;0.20;;;;;;;;;;5006446;28;20057;-76
2024/01/03 13:47:30;;;;;;;0.57;0.35;;;;;;;;;;5006295;28;20046;-76
2024/01/03 13:49:58;;;;;;;0.20;0.20;;;;;;;;;;5006593;28;20129;-75
2024/01/03 13:52:25;;;;;;;1.05;0.50;;;;;;;;;;5006609;28;20507;-74
2024/01/03 13:54:53;;;;;;;0.30;0.25;;;;;;;;;;4996673;28;20050;-75
2024/01/03 13:57:21;;;;;;;0.10;0.10;;;;;;;;;;5008568;28;20049;-75
2024/01/03 13:59:48;;;;;;;0.40;0.40;;;;;;;;;;5008524;28;20538;-75
2024/01/03 14:02:16;;;;;;;1.55;0.35;;;;;;;;;;5003913;28;20045;-75
2024/01/03 14:04:43;;;;;;;0.45;0.40;;;;;;;;;;4999938;28;20369;-74
2024/01/03 14:07:12;;;;;;;0.28;0.28;;;;;;;;;;5002794;28;20104;-75
2024/01/03 14:09:40;;;;;;;2.25;0.50;;;;;;;;;;4977288;28;20054;-76
2024/01/03 14:12:08;;;;;;;0.20;0.20;;;;;;;;;;4979996;28;20064;-75
2024/01/03 14:14:36;;;;;;;0.47;0.45;;;;;;;;;;5001627;28;20042;-74
2024/01/03 14:17:05;;;;;;;0.32;0.32;;;;;;;;;;5000438;28;20045;-74
2024/01/03 14:19:34;;;;;;;0.40;0.30;;;;;;;;;;4987215;28;20042;-75
2024/01/03 14:22:03;;;;;;;0.38;0.38;;;;;;;;;;4982515;28;20501;-76
2024/01/03 14:24:31;;;;;;;0.10;0.10;;;;;;;;;;4987954;28;20522;-76
2024/01/03 14:26:59;;;;;;;0.32;0.28;;;;;;;;;;4999863;28;20049;-74
2024/01/03 14:29:26;;;;;;;0.40;0.40;;;;;;;;;;5003750;28;20077;-74
2024/01/03 14:31:54;;;;;;;0.20;0.20;;;;;;;;;;5001160;28;20049;-75
2024/01/03 14:34:22;;;;;;;0.63;0.50;;;;;;;;;;5002484;28;20132;-77
2024/01/03 14:37:07;;;;;;;0.63;0.47;;;;;;;;;;5003994;28;20041;-75
2024/01/03 14:39:37;;;;;;;0.40;0.30;;;;;;;;;;4986653;28;20431;-75
2024/01/03 14:42:10;;;;;;;4.10;0.40;;;;;;;;;;5003310;28;20050;-74
2024/01/03 14:44:39;;;;;;;0.10;0.10;;;;;;;;;;5003002;28;20056;-74
2024/01/03 14:47:07;;;;;;;1.23;0.13;;;;;;;;;;4998812;28;20041;-75
2024/01/03 14:49:37;;;;;;;1.17;0.35;;;;;;;;;;5002504;28;20270;-74
2024/01/03 14:52:06;;;;;;;1.40;0.45;;;;;;;;;;5005254;28;20053;-74